Time;durP1;ratioP1;P1;durP2;ratioP2;P2;SDS_P1;SDS_P2;PMS_P1;PMS_P2;Temp;Humidity;BMP_temperature;BMP_pressure;BME280_temperature;BME280_humidity;BME280_pressure;Samples;Min_cycle;Max_cycle;Signal;HPM_P1;HPM_P2
2022/10/27 00:00:11;;;;;;;23.15;6.90;;;;;;;16.17;49.68;100556.56;3133671;28;20755;-64
2022/10/27 00:01:43;;;;;;;16.50;6.80;;;;;;;16.18;49.50;100552.97;3133954;28;20037;-64
2022/10/27 00:03:16;;;;;;;25.45;7.60;;;;;;;16.20;49.68;100553.75;3144749;28;20048;-64
2022/10/27 00:04:48;;;;;;;18.63;7.80;;;;;;;16.21;49.54;100552.81;3136290;28;20461;-64
2022/10/27 00:06:19;;;;;;;25.98;7.72;;;;;;;16.23;49.54;100556.22;3133550;28;20045;-64
2022/10/27 00:07:51;;;;;;;23.85;7.97;;;;;;;16.26;49.25;100561.28;3133912;28;20053;-64
2022/10/27 00:09:23;;;;;;;22.45;6.85;;;;;;;16.25;49.08;100551.72;3133632;28;20082;-64
2022/10/27 00:10:59;;;;;;;24.67;8.23;;;;;;;16.26;49.22;100550.78;3133752;28;20098;-64
2022/10/27 00:12:33;;;;;;;14.07;7.38;;;;;;;16.26;49.22;100556.88;3134057;28;20084;-63
2022/10/27 00:14:04;;;;;;;15.48;7.57;;;;;;;16.22;49.17;100559.78;3133532;28;20049;-63
2022/10/27 00:15:35;;;;;;;16.13;7.00;;;;;;;16.18;49.54;100558.25;3133572;28;20110;-62
2022/10/27 00:17:07;;;;;;;17.55;7.82;;;;;;;16.14;49.57;100560.19;3133518;28;20496;-63
2022/10/27 00:18:39;;;;;;;21.55;7.88;;;;;;;16.12;49.35;100562.09;3133582;28;20502;-63
2022/10/27 00:20:11;;;;;;;13.70;6.65;;;;;;;16.10;49.52;100558.69;3140867;28;20131;-63
2022/10/27 00:21:42;;;;;;;24.02;8.63;;;;;;;16.07;49.42;100550.97;3147521;28;20052;-63
2022/10/27 00:23:13;;;;;;;26.23;8.10;;;;;;;16.06;49.65;100554.53;3142269;28;20068;-63
2022/10/27 00:24:45;;;;;;;18.73;7.90;;;;;;;16.04;49.64;100559.03;3133752;28;20049;-63
2022/10/27 00:26:19;;;;;;;24.65;8.13;;;;;;;16.00;49.61;100563.63;3133246;28;20549;-63
2022/10/27 00:27:52;;;;;;;19.05;7.88;;;;;;;15.99;49.64;100569.78;3133415;28;20044;-63
2022/10/27 00:29:24;;;;;;;20.60;9.10;;;;;;;15.96;49.75;100564.69;3133608;28;20052;-63
2022/10/27 00:31:00;;;;;;;21.52;8.60;;;;;;;15.94;49.98;100566.56;3133099;28;20106;-63
2022/10/27 00:32:32;;;;;;;22.33;9.32;;;;;;;15.87;49.60;100549.44;3133676;28;20063;-64
2022/10/27 00:34:04;;;;;;;23.58;9.15;;;;;;;15.91;49.98;100566.72;3136842;28;20049;-64
2022/10/27 00:35:35;;;;;;;27.42;9.40;;;;;;;15.89;49.88;100568.63;3141888;28;20060;-63
2022/10/27 00:37:07;;;;;;;18.25;8.13;;;;;;;15.86;50.13;100567.00;3135421;28;20195;-64
2022/10/27 00:38:39;;;;;;;22.33;8.48;;;;;;;15.85;50.07;100561.81;3133233;28;20077;-63
2022/10/27 00:40:12;;;;;;;32.60;9.02;;;;;;;15.84;49.96;100568.00;3134601;28;20052;-63
2022/10/27 00:41:45;;;;;;;21.02;8.90;;;;;;;15.76;50.12;100563.16;3132219;28;20463;-63
2022/10/27 00:43:26;;;;;;;24.45;8.90;;;;;;;15.74;50.05;100564.22;3132330;28;20037;-63
2022/10/27 00:44:58;;;;;;;23.55;8.85;;;;;;;15.67;50.67;100567.13;3131951;28;20118;-63
2022/10/27 00:46:35;;;;;;;21.10;8.50;;;;;;;15.68;50.38;100566.22;3132763;28;20122;-64
2022/10/27 00:48:07;;;;;;;20.85;9.23;;;;;;;15.67;50.19;100558.38;3132615;28;20052;-64
2022/10/27 00:49:44;;;;;;;20.65;8.80;;;;;;;15.65;50.36;100555.84;3132142;28;20484;-64
2022/10/27 00:51:18;;;;;;;18.17;9.75;;;;;;;15.64;50.53;100558.56;3141164;28;20533;-64
2022/10/27 00:52:53;;;;;;;27.05;10.15;;;;;;;15.59;50.70;100556.19;3134662;28;20057;-64
2022/10/27 00:54:28;;;;;;;23.08;9.52;;;;;;;15.58;50.50;100564.13;3144472;28;20052;-63
2022/10/27 00:56:00;;;;;;;20.45;8.80;;;;;;;15.55;50.71;100569.53;3132865;28;20490;-63
2022/10/27 00:57:34;;;;;;;23.80;9.73;;;;;;;15.53;50.54;100569.66;3132241;28;20057;-63
2022/10/27 00:59:07;;;;;;;28.83;9.30;;;;;;;15.50;50.90;100567.19;3136988;28;20045;-63
2022/10/27 01:00:40;;;;;;;22.75;9.38;;;;;;;15.35;50.71;100541.72;3140291;28;20102;-64
2022/10/27 01:02:11;;;;;;;21.63;9.60;;;;;;;15.45;50.65;100567.41;3140306;28;20051;-63
2022/10/27 01:03:45;;;;;;;16.23;8.45;;;;;;;15.43;50.72;100566.63;3143040;28;20536;-63
2022/10/27 01:05:19;;;;;;;20.65;9.05;;;;;;;15.41;50.68;100572.91;3132270;28;20044;-63
2022/10/27 01:06:50;;;;;;;23.13;8.88;;;;;;;15.39;50.69;100569.53;3132044;28;20045;-63
2022/10/27 01:08:23;;;;;;;20.17;8.00;;;;;;;15.32;50.79;100562.88;3132011;28;20057;-63
2022/10/27 01:09:56;;;;;;;17.63;8.70;;;;;;;15.31;50.45;100561.19;3131939;28;20049;-64
2022/10/27 01:11:28;;;;;;;15.52;8.52;;;;;;;15.32;50.57;100570.75;3132026;28;20044;-64
2022/10/27 01:13:01;;;;;;;17.33;7.75;;;;;;;15.22;50.60;100544.16;3132009;28;20099;-63
2022/10/27 01:14:34;;;;;;;18.98;8.15;;;;;;;15.38;50.23;100567.81;3131755;28;20132;-63
2022/10/27 01:16:16;;;;;;;21.63;7.25;;;;;;;15.37;50.35;100566.97;3131740;28;20049;-62
2022/10/27 01:17:58;;;;;;;20.73;7.88;;;;;;;15.37;50.33;100566.13;3131889;28;20142;-63
2022/10/27 01:19:56;;;;;;;18.20;7.50;;;;;;;15.36;49.91;100569.69;3134451;28;20099;-63
2022/10/27 01:21:53;;;;;;;18.80;7.07;;;;;;;15.35;50.16;100570.59;3144766;28;20052;-63
2022/10/27 01:23:35;;;;;;;15.68;7.20;;;;;;;15.33;50.12;100557.56;3136353;28;20061;-63
2022/10/27 01:25:33;;;;;;;16.58;6.68;;;;;;;15.36;49.91;100565.28;3122882;28;20485;-63
2022/10/27 01:27:08;;;;;;;15.45;6.93;;;;;;;15.31;50.05;100555.97;3122634;28;20057;-63
2022/10/27 01:29:10;;;;;;;22.77;7.32;;;;;;;15.39;49.84;100569.53;3122796;28;20056;-63
2022/10/27 01:31:01;;;;;;;15.93;6.65;;;;;;;15.38;49.88;100570.44;3130583;28;20055;-63
2022/10/27 01:32:41;;;;;;;16.15;7.05;;;;;;;15.36;49.80;100565.28;3130841;28;20113;-63
2022/10/27 01:34:20;;;;;;;13.43;6.57;;;;;;;15.32;50.06;100562.88;3126043;28;20052;-63
2022/10/27 01:35:56;;;;;;;17.02;6.78;;;;;;;15.31;50.11;100574.31;3132502;28;20934;-63
2022/10/27 01:37:35;;;;;;;21.33;7.70;;;;;;;15.32;49.98;100576.88;3122645;28;20508;-63
2022/10/27 01:39:14;;;;;;;15.55;7.18;;;;;;;15.33;50.14;100577.72;3124812;28;20053;-63
2022/10/27 01:40:53;;;;;;;15.82;6.75;;;;;;;15.31;49.95;100583.03;3136562;28;20048;-63
2022/10/27 01:42:29;;;;;;;15.65;7.13;;;;;;;15.33;50.02;100585.59;3124375;28;20056;-63
2022/10/27 01:44:10;;;;;;;17.67;7.40;;;;;;;15.36;49.89;100590.69;3127101;28;20448;-63
2022/10/27 01:45:42;;;;;;;14.38;7.00;;;;;;;15.35;49.79;100584.59;3123730;28;20279;-63
2022/10/27 01:47:16;;;;;;;20.23;6.40;;;;;;;15.36;49.89;100588.06;3122976;28;20157;-63
2022/10/27 01:48:47;;;;;;;;;;;;;;;15.31;49.86;100588.28;3124347;28;20057;-63
2022/10/27 01:50:26;;;;;;;17.77;7.22;;;;;;;15.33;50.08;100590.84;3125683;28;20007;-63
2022/10/27 01:52:04;;;;;;;15.65;6.90;;;;;;;15.39;49.61;100587.91;3128745;28;20540;-63
2022/10/27 01:53:41;;;;;;;16.02;6.40;;;;;;;15.41;49.50;100593.91;3123390;28;20215;-63
2022/10/27 01:55:22;;;;;;;15.07;6.82;;;;;;;15.45;49.87;100584.94;3123557;28;20052;-63
2022/10/27 01:57:05;;;;;;;17.52;6.63;;;;;;;15.45;49.89;100593.66;3129793;28;20555;-63
2022/10/27 01:58:51;;;;;;;19.30;5.75;;;;;;;15.45;49.54;100591.03;3128942;28;20358;-63
2022/10/27 02:00:23;;;;;;;19.20;6.93;;;;;;;15.46;49.70;100591.88;3123947;28;20098;-63
2022/10/27 02:02:04;;;;;;;16.75;5.80;;;;;;;15.48;49.47;100597.91;3131614;28;20441;-64
2022/10/27 02:03:46;;;;;;;12.63;5.72;;;;;;;15.48;49.25;100595.28;3134180;28;20441;-63
2022/10/27 02:05:23;;;;;;;14.35;5.40;;;;;;;15.49;49.11;100602.22;3122978;28;20048;-63
2022/10/27 02:06:59;;;;;;;11.05;4.88;;;;;;;15.50;49.20;100595.19;3123591;28;20060;-63
2022/10/27 02:08:40;;;;;;;13.07;5.80;;;;;;;15.52;49.04;100602.06;3123280;28;20490;-63
2022/10/27 02:10:17;;;;;;;11.43;4.70;;;;;;;15.54;49.05;100602.00;3121979;28;20053;-63
2022/10/27 02:11:53;;;;;;;13.75;5.47;;;;;;;15.53;48.97;100601.16;3121887;28;20302;-63
2022/10/27 02:13:25;;;;;;;15.68;5.03;;;;;;;15.48;48.87;100597.91;3122380;28;20099;-63
2022/10/27 02:14:58;;;;;;;17.30;5.75;;;;;;;15.53;48.99;100600.28;3123372;28;20079;-63
2022/10/27 02:16:34;;;;;;;15.43;5.00;;;;;;;15.52;49.16;100602.06;3123326;28;20059;-63
2022/10/27 02:18:10;;;;;;;14.57;5.15;;;;;;;15.50;49.22;100608.31;3123260;28;20449;-63
2022/10/27 02:19:46;;;;;;;12.63;5.13;;;;;;;15.50;49.25;100610.94;3125422;28;20060;-63
2022/10/27 02:21:20;;;;;;;14.00;6.35;;;;;;;15.50;48.96;100609.19;3132401;28;20056;-63
2022/10/27 02:22:55;;;;;;;17.05;5.15;;;;;;;15.49;49.05;100617.97;3136614;28;20068;-63
2022/10/27 02:24:27;;;;;;;10.85;5.07;;;;;;;15.46;49.02;100613.72;3121606;28;20183;-63
2022/10/27 02:26:05;;;;;;;10.25;4.63;;;;;;;15.46;49.05;100618.13;3121955;28;20061;-63
2022/10/27 02:27:38;;;;;;;11.18;4.97;;;;;;;15.46;49.16;100615.50;3131955;28;20083;-63
2022/10/27 02:29:17;;;;;;;20.25;5.95;;;;;;;15.43;49.30;100619.13;3122503;28;20056;-63
2022/10/27 02:30:49;;;;;;;11.30;5.57;;;;;;;15.42;49.00;100620.06;3123481;28;20059;-62
2022/10/27 02:32:24;;;;;;;13.70;5.03;;;;;;;15.37;49.24;100616.00;3122856;28;20110;-64
2022/10/27 02:33:58;;;;;;;13.40;5.57;;;;;;;15.35;49.31;100616.09;3122147;28;20516;-63
2022/10/27 02:35:31;;;;;;;11.38;4.95;;;;;;;15.24;49.49;100602.66;3128751;28;20056;-63
2022/10/27 02:37:05;;;;;;;10.88;4.88;;;;;;;15.31;49.42;100619.78;3124147;28;20052;-63
2022/10/27 02:38:35;;;;;;;15.63;5.72;;;;;;;15.30;49.42;100622.50;3122086;28;20103;-62
2022/10/27 02:40:09;;;;;;;17.02;5.47;;;;;;;15.25;49.60;100620.94;3123803;28;20091;-62
2022/10/27 02:41:41;;;;;;;13.85;6.63;;;;;;;15.24;49.54;100618.41;3121342;28;20053;-63
2022/10/27 02:43:12;;;;;;;15.00;5.85;;;;;;;15.21;49.51;100621.19;3121870;28;20056;-62
2022/10/27 02:44:44;;;;;;;10.60;5.72;;;;;;;15.20;49.79;100633.47;3123330;28;20597;-63
2022/10/27 02:46:16;;;;;;;12.05;5.63;;;;;;;15.16;49.71;100637.16;3122607;28;20114;-64
2022/10/27 02:47:48;;;;;;;13.38;5.68;;;;;;;15.10;49.94;100628.75;3122293;28;20056;-63
2022/10/27 02:49:20;;;;;;;16.67;5.60;;;;;;;15.07;50.27;100636.78;3121943;28;20065;-64
2022/10/27 02:50:53;;;;;;;15.18;5.90;;;;;;;15.06;50.02;100635.09;3129173;28;20307;-63
2022/10/27 02:52:24;;;;;;;13.45;5.47;;;;;;;15.06;49.98;100638.56;3132203;28;20277;-63
2022/10/27 02:53:56;;;;;;;15.00;6.18;;;;;;;15.07;50.12;100637.63;3125810;28;20632;-63
2022/10/27 02:55:27;;;;;;;14.90;6.03;;;;;;;15.09;50.08;100641.03;3129574;28;20084;-64
2022/10/27 02:56:59;;;;;;;12.18;5.80;;;;;;;15.12;50.05;100640.03;3129888;28;20071;-64
2022/10/27 02:58:31;;;;;;;11.88;6.00;;;;;;;15.13;49.96;100647.81;3123125;28;20080;-64
2022/10/27 03:00:03;;;;;;;11.43;5.70;;;;;;;15.14;50.20;100644.25;3123013;28;20522;-64
2022/10/27 03:01:35;;;;;;;13.35;5.75;;;;;;;15.15;50.12;100647.75;3133291;28;20099;-64
2022/10/27 03:03:07;;;;;;;11.55;6.05;;;;;;;15.16;49.89;100647.66;3133156;28;20075;-64
2022/10/27 03:04:38;;;;;;;13.82;5.82;;;;;;;15.15;50.21;100650.38;3125650;28;20110;-64
2022/10/27 03:06:11;;;;;;;13.05;5.10;;;;;;;15.14;50.14;100646.88;3123185;28;20065;-64
2022/10/27 03:07:43;;;;;;;;;;;;;;;15.00;50.10;100647.59;3123820;28;20507;-64
2022/10/27 03:09:14;;;;;;;13.05;6.22;;;;;;;15.04;50.29;100650.91;3124987;28;19924;-64
2022/10/27 03:10:46;;;;;;;13.88;5.85;;;;;;;15.06;50.22;100656.94;3125436;28;20215;-64
2022/10/27 03:12:18;;;;;;;10.88;5.45;;;;;;;15.07;50.41;100657.78;3125226;28;20508;-64
2022/10/27 03:13:50;;;;;;;12.98;5.20;;;;;;;15.07;50.52;100647.28;3124654;28;20195;-64
2022/10/27 03:15:22;;;;;;;12.18;5.47;;;;;;;15.06;50.23;100651.69;3124303;28;20199;-64
2022/10/27 03:16:53;;;;;;;18.70;6.03;;;;;;;15.04;50.23;100653.53;3124169;28;20589;-64
2022/10/27 03:18:25;;;;;;;18.92;8.20;;;;;;;15.04;50.61;100656.16;3124334;28;20060;-65
2022/10/27 03:19:57;;;;;;;10.82;6.05;;;;;;;15.04;50.51;100657.91;3128681;28;20110;-64
2022/10/27 03:21:29;;;;;;;17.80;6.45;;;;;;;15.00;50.62;100646.75;3135350;28;20048;-64
2022/10/27 03:23:01;;;;;;;10.10;5.70;;;;;;;14.99;50.47;100661.59;3138077;28;20044;-64
2022/10/27 03:24:54;;;;;;;15.13;6.57;;;;;;;14.99;50.41;100655.50;3124484;28;20322;-64
2022/10/27 03:26:26;;;;;;;13.95;6.82;;;;;;;14.97;50.45;100658.22;3131258;28;20049;-64
2022/10/27 03:27:58;;;;;;;17.00;6.90;;;;;;;14.97;50.95;100660.00;3133105;28;20045;-64
2022/10/27 03:29:29;;;;;;;20.15;6.03;;;;;;;14.97;50.56;100662.63;3133050;28;20061;-64
2022/10/27 03:31:02;;;;;;;14.00;6.72;;;;;;;14.96;50.78;100671.41;3133477;28;20494;-63
2022/10/27 03:32:34;;;;;;;17.25;7.22;;;;;;;14.92;50.81;100659.38;3132908;28;20052;-64
2022/10/27 03:34:04;;;;;;;15.57;5.97;;;;;;;14.91;50.85;100666.41;3133287;28;20154;-64
2022/10/27 03:35:36;;;;;;;17.33;5.60;;;;;;;14.88;51.03;100663.94;3140949;28;20151;-64
2022/10/27 03:37:10;;;;;;;14.48;6.47;;;;;;;14.87;51.07;100669.25;3134978;28;20114;-64
2022/10/27 03:38:40;;;;;;;17.30;6.40;;;;;;;14.75;51.22;100653.19;3133114;28;20049;-64
2022/10/27 03:40:13;;;;;;;15.35;5.85;;;;;;;14.81;51.16;100662.53;3135378;28;20053;-64
2022/10/27 03:41:44;;;;;;;10.60;6.07;;;;;;;14.83;51.19;100667.72;3133669;28;20060;-64
2022/10/27 03:43:16;;;;;;;12.73;5.72;;;;;;;14.81;51.28;100665.16;3134002;28;20130;-64
2022/10/27 03:44:47;;;;;;;21.67;5.90;;;;;;;14.78;51.10;100660.91;3134145;28;20103;-64
2022/10/27 03:46:19;;;;;;;14.57;6.95;;;;;;;14.81;50.90;100667.75;3137156;28;20049;-64
2022/10/27 03:47:58;;;;;;;13.80;6.45;;;;;;;14.79;50.95;100660.00;3135552;28;20065;-64
2022/10/27 03:49:30;;;;;;;18.13;6.05;;;;;;;14.78;51.17;100668.75;3139346;28;20187;-65
2022/10/27 03:51:01;;;;;;;13.77;6.07;;;;;;;14.78;51.04;100662.66;3134587;28;20113;-64
2022/10/27 03:52:34;;;;;;;15.52;6.25;;;;;;;14.75;51.18;100668.91;3139105;28;20506;-64
2022/10/27 03:54:06;;;;;;;12.60;5.72;;;;;;;14.64;51.44;100660.75;3133732;28;20507;-64
2022/10/27 03:55:38;;;;;;;13.32;6.00;;;;;;;14.68;51.53;100672.75;3134098;28;20060;-64
2022/10/27 03:57:12;;;;;;;19.23;5.60;;;;;;;14.67;51.21;100675.44;3133623;28;20415;-64
2022/10/27 03:58:43;;;;;;;13.60;6.18;;;;;;;14.66;51.56;100681.63;3133783;28;20131;-64
2022/10/27 04:00:16;;;;;;;10.88;5.60;;;;;;;14.67;51.51;100691.19;3134291;28;20045;-65
2022/10/27 04:01:49;;;;;;;20.48;5.93;;;;;;;14.67;51.17;100680.69;3135901;28;20079;-64
2022/10/27 04:03:21;;;;;;;24.65;6.35;;;;;;;14.67;51.31;100681.56;3145744;28;20053;-64
2022/10/27 04:04:56;;;;;;;16.42;5.75;;;;;;;14.69;51.20;100684.94;3139095;28;20422;-64
2022/10/27 04:06:28;;;;;;;10.95;4.38;;;;;;;14.73;51.00;100693.50;3135921;28;20053;-64
2022/10/27 04:08:01;;;;;;;12.32;5.15;;;;;;;14.74;51.45;100692.59;3134040;28;20055;-64
2022/10/27 04:09:32;;;;;;;17.30;5.22;;;;;;;14.75;51.34;100699.53;3133759;28;20057;-63
2022/10/27 04:11:04;;;;;;;12.52;5.18;;;;;;;14.74;51.44;100695.22;3133694;28;20056;-65
2022/10/27 04:12:35;;;;;;;11.40;4.72;;;;;;;14.71;51.29;100692.75;3133786;28;20128;-64
2022/10/27 04:14:07;;;;;;;14.30;4.75;;;;;;;14.71;51.00;100693.59;3133401;28;20060;-63
2022/10/27 04:15:39;;;;;;;9.80;5.20;;;;;;;14.71;50.94;100698.00;3133827;28;20056;-64
2022/10/27 04:17:11;;;;;;;16.00;5.40;;;;;;;14.68;51.16;100690.28;3133413;28;20484;-62
2022/10/27 04:18:43;;;;;;;12.38;5.15;;;;;;;14.68;50.82;100693.75;3134252;28;20103;-62
2022/10/27 04:20:15;;;;;;;10.43;5.35;;;;;;;14.68;51.18;100701.59;3139172;28;20048;-65
2022/10/27 04:21:47;;;;;;;10.90;5.00;;;;;;;14.67;51.19;100697.28;3145748;28;20044;-62
2022/10/27 04:23:19;;;;;;;14.75;5.13;;;;;;;14.69;51.00;100705.06;3138592;28;20371;-62
2022/10/27 04:24:51;;;;;;;12.05;4.55;;;;;;;14.67;51.20;100702.53;3133209;28;20052;-63
2022/10/27 04:26:23;;;;;;;8.52;3.78;;;;;;;14.65;50.86;100701.75;3132869;28;20056;-62
2022/10/27 04:28:01;;;;;;;12.00;3.92;;;;;;;14.64;50.85;100696.56;3133071;28;20106;-62
2022/10/27 04:29:34;;;;;;;11.80;3.97;;;;;;;14.63;51.00;100705.38;3133240;28;20056;-64
2022/10/27 04:31:06;;;;;;;10.90;4.30;;;;;;;14.62;51.11;100708.91;3133463;28;20076;-62
2022/10/27 04:32:38;;;;;;;14.77;5.25;;;;;;;14.62;50.79;100707.13;3133307;28;20041;-61
2022/10/27 04:34:10;;;;;;;14.30;4.00;;;;;;;14.64;50.91;100702.69;3132613;28;20049;-63
2022/10/27 04:35:43;;;;;;;39.90;7.43;;;;;;;14.68;50.99;100712.09;3133959;28;20065;-63
2022/10/27 04:37:15;;;;;;;30.90;11.43;;;;;;;14.71;50.76;100713.72;3133386;28;20621;-61
2022/10/27 04:38:50;;;;;;;40.88;21.45;;;;;;;14.72;50.76;100715.41;3132937;28;20318;-62
2022/10/27 04:40:22;;;;;;;22.38;5.68;;;;;;;14.70;50.90;100712.88;3144554;28;20048;-63
2022/10/27 04:41:54;;;;;;;20.15;6.55;;;;;;;14.65;51.22;100717.47;3138724;28;20056;-64
2022/10/27 04:43:26;;;;;;;11.90;4.30;;;;;;;14.61;50.93;100715.94;3139079;28;20138;-64
2022/10/27 04:44:58;;;;;;;14.65;3.90;;;;;;;14.60;51.15;100718.63;3138651;28;20055;-66
2022/10/27 04:46:29;;;;;;;10.35;3.50;;;;;;;14.58;51.06;100713.44;3132825;28;20106;-64
2022/10/27 04:48:01;;;;;;;11.40;3.95;;;;;;;14.62;50.91;100717.63;3135248;28;20048;-65
2022/10/27 04:49:33;;;;;;;11.93;3.58;;;;;;;14.63;51.28;100716.69;3142395;28;20093;-67
2022/10/27 04:51:05;;;;;;;12.15;3.67;;;;;;;14.57;50.87;100709.13;3133181;28;20079;-68
2022/10/27 04:52:37;;;;;;;8.82;3.80;;;;;;;14.66;50.86;100729.66;3132771;28;20118;-68
2022/10/27 04:54:10;;;;;;;14.48;4.03;;;;;;;14.65;51.14;100725.34;3132449;28;20134;-66
2022/10/27 04:55:42;;;;;;;;;;;;;;;14.59;50.95;100724.78;3140859;28;20052;-65
2022/10/27 04:57:14;;;;;;;13.00;3.53;;;;;;;14.55;50.93;100721.44;3137071;28;20054;-67
2022/10/27 04:58:46;;;;;;;12.48;3.80;;;;;;;14.61;50.82;100723.81;3134918;28;20053;-65
2022/10/27 05:00:18;;;;;;;11.75;3.88;;;;;;;14.63;50.98;100724.56;3139885;28;20463;-66
2022/10/27 05:01:50;;;;;;;9.93;3.72;;;;;;;14.61;50.90;100729.03;3141591;28;20053;-65
2022/10/27 05:03:22;;;;;;;21.77;5.38;;;;;;;14.64;50.68;100728.03;3132826;28;20110;-66
2022/10/27 05:04:53;;;;;;;11.05;3.90;;;;;;;14.66;50.72;100728.81;3143133;28;20071;-65
2022/10/27 05:06:25;;;;;;;15.95;3.47;;;;;;;14.66;50.74;100726.19;3136016;28;20283;-64
2022/10/27 05:07:59;;;;;;;13.52;3.60;;;;;;;14.70;50.58;100733.84;3133134;28;20166;-64
2022/10/27 05:09:32;;;;;;;9.68;3.38;;;;;;;14.71;50.66;100739.94;3132778;28;20052;-65
2022/10/27 05:11:05;;;;;;;11.55;3.50;;;;;;;14.66;50.90;100734.91;3132920;28;20049;-65
2022/10/27 05:12:36;;;;;;;16.58;4.40;;;;;;;14.59;50.62;100736.13;3131968;28;20589;-65
2022/10/27 05:14:08;;;;;;;15.20;4.18;;;;;;;14.59;51.06;100737.91;3131622;28;20060;-65
2022/10/27 05:15:40;;;;;;;16.10;4.30;;;;;;;14.59;51.21;100737.91;3134596;28;20044;-65
2022/10/27 05:17:12;;;;;;;12.25;3.90;;;;;;;14.61;51.05;100747.41;3125673;28;20110;-63
2022/10/27 05:18:44;;;;;;;12.55;3.78;;;;;;;14.62;50.98;100748.25;3122319;28;20114;-66
2022/10/27 05:20:17;;;;;;;8.60;3.90;;;;;;;14.56;51.25;100742.34;3128388;28;20064;-65
2022/10/27 05:21:49;;;;;;;13.40;4.93;;;;;;;14.58;51.17;100752.75;3128118;28;20136;-65
2022/10/27 05:23:21;;;;;;;10.88;3.88;;;;;;;14.61;50.86;100746.53;3123008;28;20051;-65
2022/10/27 05:24:55;;;;;;;10.93;3.75;;;;;;;14.59;51.08;100746.59;3121100;28;20508;-65
2022/10/27 05:26:27;;;;;;;;;;;;;;;14.52;50.90;100758.28;3124527;28;20568;-65
2022/10/27 05:28:03;;;;;;;8.85;3.10;;;;;;;14.49;50.97;100746.16;3123143;28;19925;-64
2022/10/27 05:29:35;;;;;;;9.75;3.22;;;;;;;14.53;51.26;100752.97;3131876;28;20077;-66
2022/10/27 05:31:07;;;;;;;17.73;4.40;;;;;;;14.56;51.17;100757.22;3132375;28;20049;-65
2022/10/27 05:32:39;;;;;;;17.20;4.05;;;;;;;14.59;50.98;100754.47;3133287;28;20055;-66
2022/10/27 05:34:14;;;;;;;14.55;4.20;;;;;;;14.64;51.05;100760.34;3136275;28;20063;-64
2022/10/27 05:35:46;;;;;;;31.17;15.07;;;;;;;14.68;51.07;100759.28;3142635;28;20450;-65
2022/10/27 05:37:17;;;;;;;16.08;7.47;;;;;;;14.72;51.02;100758.19;3144466;28;20048;-63
2022/10/27 05:38:49;;;;;;;26.73;5.72;;;;;;;14.80;50.80;100776.22;3144860;28;20510;-68
2022/10/27 05:40:23;;;;;;;19.58;5.25;;;;;;;14.82;51.16;100774.38;3144274;28;20056;-64
2022/10/27 05:41:54;;;;;;;;;;;;;;;14.78;50.95;100768.41;3145510;28;20056;-63
2022/10/27 05:43:26;;;;;;;15.18;6.10;;;;;;;14.79;51.13;100771.91;3143863;28;20405;-65
2022/10/27 05:44:58;;;;;;;22.35;5.90;;;;;;;14.84;50.72;100774.28;3135558;28;20067;-64
2022/10/27 05:46:30;;;;;;;24.77;5.55;;;;;;;14.86;50.71;100773.28;3131737;28;20572;-64
2022/10/27 05:48:03;;;;;;;24.60;5.43;;;;;;;14.87;51.04;100777.59;3131857;28;20056;-62
2022/10/27 05:49:35;;;;;;;16.48;4.57;;;;;;;14.85;51.02;100783.84;3142508;28;20053;-63
2022/10/27 05:51:07;;;;;;;15.95;4.53;;;;;;;14.84;50.93;100788.25;3132853;28;20467;-63
2022/10/27 05:52:39;;;;;;;29.60;4.78;;;;;;;14.87;50.73;100787.25;3131470;28;20057;-64
2022/10/27 05:54:11;;;;;;;15.88;4.10;;;;;;;14.94;50.68;100786.06;3131149;28;20368;-63
2022/10/27 05:55:44;;;;;;;13.93;4.30;;;;;;;15.01;50.50;100784.81;3131583;28;20057;-65
2022/10/27 05:57:16;;;;;;;17.75;3.60;;;;;;;15.19;50.55;100794.44;3131173;28;20056;-64
2022/10/27 05:58:48;;;;;;;21.80;4.07;;;;;;;15.28;50.07;100802.78;3131581;28;20053;-64
2022/10/27 06:00:19;;;;;;;13.27;3.85;;;;;;;15.36;50.18;100804.13;3131916;28;20411;-68
2022/10/27 06:01:51;;;;;;;10.85;3.60;;;;;;;15.40;49.68;100792.53;3130401;28;20599;-66
2022/10/27 06:03:24;;;;;;;10.23;4.47;;;;;;;15.44;49.71;100793.25;3130829;28;20048;-64
2022/10/27 06:04:56;;;;;;;21.27;5.38;;;;;;;15.57;49.69;100806.59;3132047;28;20049;-65
2022/10/27 06:06:28;;;;;;;22.05;7.13;;;;;;;15.60;49.68;100809.91;3131210;28;20510;-65
2022/10/27 06:08:00;;;;;;;10.75;5.38;;;;;;;15.64;49.40;100806.19;3131386;28;20091;-64
2022/10/27 06:09:31;;;;;;;16.48;4.50;;;;;;;15.64;49.31;100813.25;3131464;28;20056;-65
2022/10/27 06:11:05;;;;;;;10.75;5.00;;;;;;;15.73;49.20;100811.97;3132412;28;20054;-65
2022/10/27 06:12:37;;;;;;;18.98;4.80;;;;;;;15.78;49.43;100812.59;3141315;28;20052;-65
2022/10/27 06:14:09;;;;;;;13.50;3.90;;;;;;;15.84;49.03;100814.91;3130786;28;20112;-64
2022/10/27 06:15:41;;;;;;;17.95;3.40;;;;;;;15.86;48.75;100805.19;3131587;28;20060;-64
2022/10/27 06:17:13;;;;;;;12.02;3.47;;;;;;;16.12;48.58;100811.72;3141249;28;20048;-63
2022/10/27 06:18:45;;;;;;;19.23;3.78;;;;;;;16.72;48.20;100813.78;3138817;28;20056;-64
2022/10/27 06:20:17;;;;;;;13.25;3.88;;;;;;;17.42;46.96;100815.13;3134521;28;20635;-64
2022/10/27 06:21:49;;;;;;;7.20;3.33;;;;;;;17.81;45.71;100815.56;3144248;28;20048;-63
2022/10/27 06:23:21;;;;;;;15.15;3.40;;;;;;;17.82;45.22;100810.19;3130553;28;20049;-64
2022/10/27 06:24:53;;;;;;;11.32;3.45;;;;;;;17.71;45.20;100821.31;3131615;28;20052;-64
2022/10/27 06:26:26;;;;;;;13.50;3.80;;;;;;;17.71;45.24;100823.94;3131354;28;20052;-65
2022/10/27 06:27:57;;;;;;;9.43;3.53;;;;;;;18.11;45.13;100816.34;3132088;28;20060;-65
2022/10/27 06:29:29;;;;;;;11.35;3.53;;;;;;;18.58;43.98;100809.09;3131450;28;20053;-61
2022/10/27 06:31:01;;;;;;;13.15;3.63;;;;;;;18.71;43.43;100820.56;3131156;28;20447;-62
2022/10/27 06:32:37;;;;;;;15.63;4.97;;;;;;;18.57;43.42;100818.78;3131803;28;20052;-63
2022/10/27 06:34:09;;;;;;;23.50;3.53;;;;;;;18.41;43.45;100816.25;3132688;28;20048;-66
2022/10/27 06:35:41;;;;;;;14.77;3.42;;;;;;;18.31;43.72;100820.41;3132654;28;20067;-64
2022/10/27 06:37:13;;;;;;;13.07;3.70;;;;;;;18.50;43.65;100816.63;3134168;28;20044;-63
2022/10/27 06:38:45;;;;;;;29.90;3.75;;;;;;;18.58;43.19;100820.50;3138037;28;20441;-65
2022/10/27 06:40:19;;;;;;;13.25;3.55;;;;;;;18.51;43.40;100811.25;3139018;28;20041;-62
2022/10/27 06:41:52;;;;;;;15.32;3.88;;;;;;;18.39;43.37;100820.78;3131579;28;20052;-64
2022/10/27 06:43:24;;;;;;;16.50;3.85;;;;;;;18.19;43.53;100818.53;3135273;28;20040;-66
2022/10/27 06:44:56;;;;;;;9.93;3.17;;;;;;;18.05;43.91;100816.72;3132356;28;20053;-65
2022/10/27 06:46:27;;;;;;;11.80;3.88;;;;;;;18.14;43.69;100823.22;3143287;28;20447;-65
2022/10/27 06:48:01;;;;;;;16.98;3.60;;;;;;;18.20;43.78;100817.59;3131956;28;20049;-66
2022/10/27 06:49:32;;;;;;;25.80;4.35;;;;;;;18.19;43.74;100816.75;3133608;28;20080;-67
2022/10/27 06:51:04;;;;;;;13.75;3.30;;;;;;;18.16;43.89;100819.56;3141893;28;20044;-65
2022/10/27 06:52:36;;;;;;;17.55;4.15;;;;;;;18.15;43.85;100824.91;3138854;28;20057;-65
2022/10/27 06:54:08;;;;;;;13.20;3.72;;;;;;;18.06;43.83;100823.69;3136870;28;20045;-64
2022/10/27 06:55:40;;;;;;;18.00;4.28;;;;;;;18.02;43.93;100826.59;3131650;28;20464;-62
2022/10/27 06:57:13;;;;;;;14.23;3.65;;;;;;;17.95;44.04;100821.72;3131990;28;20083;-62
2022/10/27 06:58:47;;;;;;;20.67;4.35;;;;;;;17.95;44.25;100829.63;3131504;28;20068;-64
2022/10/27 07:00:19;;;;;;;17.88;3.80;;;;;;;17.94;44.33;100830.53;3132890;28;20053;-64
2022/10/27 07:01:51;;;;;;;14.70;5.30;;;;;;;17.94;44.13;100833.16;3135094;28;20059;-63
2022/10/27 07:03:23;;;;;;;18.90;4.63;;;;;;;17.95;44.28;100828.75;3138859;28;20048;-64
2022/10/27 07:04:55;;;;;;;14.68;4.30;;;;;;;18.01;44.39;100830.16;3137131;28;20056;-62
2022/10/27 07:06:27;;;;;;;22.23;4.55;;;;;;;18.04;44.39;100836.09;3131447;28;20135;-62
2022/10/27 07:07:58;;;;;;;20.85;5.25;;;;;;;18.09;44.37;100830.56;3136055;28;20044;-62
2022/10/27 07:09:30;;;;;;;23.40;5.47;;;;;;;18.16;44.30;100830.09;3135290;28;20056;-61
2022/10/27 07:11:02;;;;;;;17.95;4.95;;;;;;;18.25;44.31;100831.34;3133208;28;20049;-62